Time;durP1;ratioP1;P1;durP2;ratioP2;P2;SDS_P1;SDS_P2;PMS_P1;PMS_P2;Temp;Humidity;BMP_temperature;BMP_pressure;BME280_temperature;BME280_humidity;BME280_pressure;Samples;Min_cycle;Max_cycle;Signal;HPM_P1;HPM_P2
2021/12/17 00:05:11;;;;;;;;;;;;;;;;;;4988520;28;19921;-68
2021/12/17 00:07:37;;;;;;;;;;;;;;;;;;4988878;28;19968;-68
2021/12/17 00:10:02;;;;;;;;;;;;;;;;;;4989518;28;20396;-67
2021/12/17 00:12:28;;;;;;;;;;;;;;;;;;4989893;28;20000;-68
2021/12/17 00:14:53;;;;;;;;;;;;;;;;;;4988986;28;19926;-66
2021/12/17 00:17:22;;;;;;;;;;;;;;;;;;4989218;28;19987;-67
2021/12/17 00:49:27;;;;;;;;;;;;;;;;;;5003629;28;19928;-66
2021/12/17 00:54:21;;;;;;;;;;;;;;;;;;4988569;28;19917;-68
2021/12/17 00:56:46;;;;;;;;;;;;;;;;;;5004350;28;19921;-69
2021/12/17 00:59:11;;;;;;;;;;;;;;;;;;4988299;28;19940;-66
2021/12/17 01:01:37;;;;;;;;;;;;;;;;;;4981850;28;19918;-67
2021/12/17 01:04:02;;;;;;;;;;;;;;;;;;4984350;28;20044;-69
2021/12/17 01:06:28;;;;;;;;;;;;;;;;;;5003498;28;20321;-67
2021/12/17 01:08:54;;;;;;;;;;;;;;;;;;4985111;28;20013;-67
2021/12/17 01:11:21;;;;;;;;;;;;;;;;;;4985468;28;19918;-66
2021/12/17 01:14:06;;;;;;;;;;;;;;;;;;4985065;28;19917;-67
2021/12/17 01:16:55;;;;;;;;;;;;;;;;;;4978331;28;19917;-66
2021/12/17 01:25:40;;;;;;;;;;;;;;;;;;5001141;28;20327;-66
2021/12/17 01:42:25;;;;;;;;;;;;;;;;;;5001392;28;19917;-67
2021/12/17 01:44:50;;;;;;;;;;;;;;;;;;4987589;28;19917;-67
2021/12/17 01:47:16;;;;;;;;;;;;;;;;;;5001585;28;20441;-66
2021/12/17 02:00:16;;;;;;;;;;;;;;;;;;5008813;28;20331;-66
2021/12/17 02:02:44;;;;;;;;;;;;;;;;;;4987121;28;20327;-68
2021/12/17 02:05:09;;;;;;;;;;;;;;;;;;5001313;28;20437;-67
2021/12/17 02:07:34;;;;;;;;;;;;;;;;;;4985805;28;19922;-68
2021/12/17 02:28:59;;;;;;;;;;;;;;;;;;5007644;28;20009;-67
2021/12/17 02:31:32;;;;;;;;;;;;;;;;;;5000766;28;20363;-66
2021/12/17 02:34:00;;;;;;;;;;;;;;;;;;4986345;28;19917;-67
2021/12/17 02:36:29;;;;;;;;;;;;;;;;;;4984898;28;19914;-67
2021/12/17 02:39:00;;;;;;;;;;;;;;;;;;4986432;28;19991;-66
2021/12/17 02:47:14;;;;;;;;;;;;;;;;;;4992632;28;20496;-66
2021/12/17 02:49:40;;;;;;;;;;;;;;;;;;4984300;28;19922;-66
2021/12/17 02:52:06;;;;;;;;;;;;;;;;;;4985314;28;19918;-68
2021/12/17 02:54:31;;;;;;;;;;;;;;;;;;5005111;28;19918;-67
2021/12/17 02:56:56;;;;;;;;;;;;;;;;;;5001358;28;20367;-66
2021/12/17 02:59:21;;;;;;;;;;;;;;;;;;5010589;28;20445;-66
2021/12/17 03:01:46;;;;;;;;;;;;;;;;;;5011108;28;20371;-67
2021/12/17 03:04:12;;;;;;;;;;;;;;;;;;5007756;28;19953;-67
2021/12/17 03:06:40;;;;;;;;;;;;;;;;;;4984537;28;19932;-68
2021/12/17 03:09:05;;;;;;;;;;;;;;;;;;4985551;28;20386;-66
2021/12/17 03:11:30;;;;;;;;;;;;;;;;;;5005593;28;19941;-66
2021/12/17 03:13:55;;;;;;;;;;;;;;;;;;5001341;28;19924;-66
2021/12/17 03:16:34;;;;;;;;;;;;;;;;;;4989189;28;19921;-66
2021/12/17 03:19:26;;;;;;;;;;;;;;;;;;4985476;28;20391;-67
2021/12/17 03:24:36;;;;;;;;;;;;;;;;;;4999870;28;20374;-67
2021/12/17 03:27:04;;;;;;;;;;;;;;;;;;4984706;28;19922;-66
2021/12/17 03:29:29;;;;;;;;;;;;;;;;;;4983646;28;20449;-68
2021/12/17 03:32:00;;;;;;;;;;;;;;;;;;5000990;28;20189;-70
2021/12/17 03:34:25;;;;;;;;;;;;;;;;;;4984456;28;19953;-66
2021/12/17 03:36:54;;;;;;;;;;;;;;;;;;4983451;28;20361;-66
2021/12/17 03:39:19;;;;;;;;;;;;;;;;;;5001934;28;20017;-66
2021/12/17 03:41:50;;;;;;;;;;;;;;;;;;4982643;28;20008;-68
2021/12/17 03:44:17;;;;;;;;;;;;;;;;;;4998361;28;19925;-67
2021/12/17 03:47:00;;;;;;;;;;;;;;;;;;4985886;28;19922;-69
2021/12/17 03:49:26;;;;;;;;;;;;;;;;;;4984302;28;19929;-67
2021/12/17 03:52:16;;;;;;;;;;;;;;;;;;5011119;28;19941;-69
2021/12/17 03:54:40;;;;;;;;;;;;;;;;;;4983818;28;19918;-66
2021/12/17 03:57:09;;;;;;;;;;;;;;;;;;5004409;28;19921;-67
2021/12/17 03:59:36;;;;;;;;;;;;;;;;;;5000045;28;19967;-68
2021/12/17 04:02:02;;;;;;;;;;;;;;;;;;5007979;28;19914;-66
2021/12/17 04:04:27;;;;;;;;;;;;;;;;;;4988128;28;19924;-67
2021/12/17 04:07:12;;;;;;;;;;;;;;;;;;4980332;28;19929;-66
2021/12/17 04:09:54;;;;;;;;;;;;;;;;;;5004317;28;19961;-68
2021/12/17 04:12:24;;;;;;;;;;;;;;;;;;4974201;28;20429;-68
2021/12/17 04:15:06;;;;;;;;;;;;;;;;;;5003901;28;19918;-68
2021/12/17 04:17:40;;;;;;;;;;;;;;;;;;4989236;28;19964;-68
2021/12/17 04:20:06;;;;;;;;;;;;;;;;;;4987234;28;19968;-67
2021/12/17 04:22:31;;;;;;;;;;;;;;;;;;4987570;28;19918;-68
2021/12/17 04:24:56;;;;;;;;;;;;;;;;;;4989363;28;19925;-67
2021/12/17 04:27:22;;;;;;;;;;;;;;;;;;5003403;28;19918;-69
2021/12/17 04:29:47;;;;;;;;;;;;;;;;;;4987580;28;19918;-67
2021/12/17 04:32:12;;;;;;;;;;;;;;;;;;4987649;28;20016;-66
2021/12/17 04:34:38;;;;;;;;;;;;;;;;;;4987871;28;19929;-68
2021/12/17 04:37:03;;;;;;;;;;;;;;;;;;4987702;28;19926;-67
2021/12/17 04:39:42;;;;;;;;;;;;;;;;;;4986182;28;19914;-68
2021/12/17 04:42:20;;;;;;;;;;;;;;;;;;4987257;28;19924;-66
2021/12/17 04:44:52;;;;;;;;;;;;;;;;;;4987596;28;19937;-67
2021/12/17 04:58:02;;;;;;;;;;;;;;;;;;5002382;28;20421;-68
2021/12/17 05:00:29;;;;;;;;;;;;;;;;;;4986964;28;19972;-67
2021/12/17 05:03:03;;;;;;;;;;;;;;;;;;5005463;28;19909;-68
2021/12/17 05:05:31;;;;;;;;;;;;;;;;;;5011682;28;19929;-66
2021/12/17 05:08:03;;;;;;;;;;;;;;;;;;5003214;28;20368;-69
2021/12/17 05:10:49;;;;;;;;;;;;;;;;;;4974914;28;19918;-67
2021/12/17 05:21:17;;;;;;;;;;;;;;;;;;4987169;28;20298;-68
2021/12/17 05:23:46;;;;;;;;;;;;;;;;;;5000777;28;19925;-69
2021/12/17 05:26:13;;;;;;;;;;;;;;;;;;4985853;28;19928;-68
2021/12/17 05:28:43;;;;;;;;;;;;;;;;;;5012696;28;19922;-69
2021/12/17 05:31:08;;;;;;;;;;;;;;;;;;5004149;28;19925;-66
2021/12/17 05:33:39;;;;;;;;;;;;;;;;;;4986227;28;19918;-66
2021/12/17 05:36:05;;;;;;;;;;;;;;;;;;4977688;28;19918;-67
2021/12/17 05:38:30;;;;;;;;;;;;;;;;;;5001465;28;19925;-67
2021/12/17 05:40:56;;;;;;;;;;;;;;;;;;4985033;28;20393;-69
2021/12/17 05:43:21;;;;;;;;;;;;;;;;;;4962273;28;19948;-67
2021/12/17 05:46:02;;;;;;;;;;;;;;;;;;4947782;28;19927;-66
2021/12/17 05:48:28;;;;;;;;;;;;;;;;;;4924175;29;19927;-66
2021/12/17 05:50:53;;;;;;;;;;;;;;;;;;4919960;29;19919;-69
2021/12/17 05:53:19;;;;;;;;;;;;;;;;;;4919380;29;19918;-68
2021/12/17 05:55:44;;;;;;;;;;;;;;;;;;4917033;29;19914;-67
2021/12/17 05:58:09;;;;;;;;;;;;;;;;;;4917771;29;19919;-68
2021/12/17 06:00:36;;;;;;;;;;;;;;;;;;4917039;29;19965;-67
2021/12/17 06:03:23;;;;;;;;;;;;;;;;;;4919915;29;19992;-69
2021/12/17 06:05:59;;;;;;;;;;;;;;;;;;4919598;29;19923;-67
2021/12/17 06:08:24;;;;;;;;;;;;;;;;;;4918074;29;19930;-70
2021/12/17 06:10:49;;;;;;;;;;;;;;;;;;4920106;29;19915;-67
2021/12/17 06:13:14;;;;;;;;;;;;;;;;;;4918326;29;19923;-70
2021/12/17 06:15:40;;;;;;;;;;;;;;;;;;4918526;29;20381;-68
2021/12/17 06:18:05;;;;;;;;;;;;;;;;;;4919436;29;19941;-69
2021/12/17 06:20:31;;;;;;;;;;;;;;;;;;4919129;29;19927;-68
2021/12/17 06:22:58;;;;;;;;;;;;;;;;;;4917619;29;19946;-68
2021/12/17 06:25:24;;;;;;;;;;;;;;;;;;4917899;29;19923;-70
2021/12/17 06:27:49;;;;;;;;;;;;;;;;;;4918024;29;20454;-68
2021/12/17 06:30:14;;;;;;;;;;;;;;;;;;4919079;29;19919;-68
2021/12/17 06:32:40;;;;;;;;;;;;;;;;;;4918166;29;19997;-68
2021/12/17 06:35:06;;;;;;;;;;;;;;;;;;4920060;29;20433;-68
2021/12/17 06:37:33;;;;;;;;;;;;;;;;;;4919256;29;19919;-68
2021/12/17 06:39:59;;;;;;;;;;;;;;;;;;4923275;29;19967;-68
2021/12/17 06:42:26;;;;;;;;;;;;;;;;;;4912886;29;19919;-70
2021/12/17 06:44:51;;;;;;;;;;;;;;;;;;4910752;29;19997;-67
2021/12/17 06:47:30;;;;;;;;;;;;;;;;;;4941843;28;20411;-67
2021/12/17 06:54:40;;;;;;;;;;;;;;;;;;4975598;28;19922;-67
2021/12/17 07:09:05;;;;;;;;;;;;;;;;;;4961854;28;20544;-68
2021/12/17 07:10:58;;;;;;;;;;;;;;;;;;4960841;28;19918;-70
2021/12/17 07:38:37;;;;;;;;;;;;;;;;;;4955670;28;19918;-69
2021/12/17 07:40:24;;;;;;;;;;;;;;;;;;4957424;28;19962;-68
2021/12/17 07:42:49;;;;;;;;;;;;;;;;;;4973877;28;19954;-68
2021/12/17 07:45:22;;;;;;;;;;;;;;;;;;4957695;28;20430;-68
2021/12/17 07:48:00;;;;;;;;;;;;;;;;;;4961357;28;19930;-68
2021/12/17 07:50:32;;;;;;;;;;;;;;;;;;4960326;28;20038;-68
2021/12/17 07:53:07;;;;;;;;;;;;;;;;;;4959332;28;19982;-69
2021/12/17 07:55:45;;;;;;;;;;;;;;;;;;4945901;28;19922;-68
2021/12/17 07:58:16;;;;;;;;;;;;;;;;;;4945899;28;20229;-68
2021/12/17 08:00:41;;;;;;;;;;;;;;;;;;4946490;28;20407;-68
2021/12/17 08:03:06;;;;;;;;;;;;;;;;;;4944459;29;20388;-68
2021/12/17 08:05:57;;;;;;;;;;;;;;;;;;4943928;28;19976;-68
2021/12/17 08:08:23;;;;;;;;;;;;;;;;;;4960917;28;19968;-69
2021/12/17 08:11:22;;;;;;;;;;;;;;;;;;4945472;28;19911;-68
2021/12/17 08:13:47;;;;;;;;;;;;;;;;;;4960160;28;20438;-68
2021/12/17 08:31:58;;;;;;;;;;;;;;;;;;4961223;28;20025;-69
2021/12/17 08:34:31;;;;;;;;;;;;;;;;;;4944773;28;19981;-70
2021/12/17 08:36:57;;;;;;;;;;;;;;;;;;4943951;28;19923;-68
2021/12/17 08:39:22;;;;;;;;;;;;;;;;;;4944570;28;20341;-67
2021/12/17 08:41:52;;;;;;;;;;;;;;;;;;4946380;28;19919;-71
2021/12/17 08:44:18;;;;;;;;;;;;;;;;;;4945239;28;19925;-69
2021/12/17 08:47:03;;;;;;;;;;;;;;;;;;4979271;28;19980;-67
2021/12/17 08:49:32;;;;;;;;;;;;;;;;;;5000941;28;20324;-67
2021/12/17 08:52:09;;;;;;;;;;;;;;;;;;4968779;28;20434;-69
2021/12/17 08:54:35;;;;;;;;;;;;;;;;;;4982857;28;19948;-68
2021/12/17 08:57:01;;;;;;;;;;;;;;;;;;5002315;28;19925;-67
2021/12/17 08:59:30;;;;;;;;;;;;;;;;;;5004754;28;20532;-69
2021/12/17 09:02:10;;;;;;;;;;;;;;;;;;4984813;28;20396;-71
2021/12/17 09:04:39;;;;;;;;;;;;;;;;;;4969495;28;19918;-71
2021/12/17 09:07:06;;;;;;;;;;;;;;;;;;4982484;28;20148;-67
2021/12/17 09:09:32;;;;;;;;;;;;;;;;;;4982734;28;19922;-68
2021/12/17 09:12:07;;;;;;;;;;;;;;;;;;4982578;28;20366;-69
2021/12/17 09:14:35;;;;;;;;;;;;;;;;;;4982747;28;19940;-69
2021/12/17 09:17:24;;;;;;;;;;;;;;;;;;4983020;28;20036;-69
2021/12/17 09:19:49;;;;;;;;;;;;;;;;;;4983126;28;19922;-68
2021/12/17 09:22:19;;;;;;;;;;;;;;;;;;5000666;28;19921;-69
2021/12/17 09:24:47;;;;;;;;;;;;;;;;;;4982565;28;19918;-69
2021/12/17 09:27:13;;;;;;;;;;;;;;;;;;4983704;28;19928;-69
2021/12/17 09:29:56;;;;;;;;;;;;;;;;;;4983773;28;19975;-67
2021/12/17 09:32:22;;;;;;;;;;;;;;;;;;4984315;28;19932;-69
2021/12/17 09:34:47;;;;;;;;;;;;;;;;;;4998945;28;20036;-70
2021/12/17 09:37:13;;;;;;;;;;;;;;;;;;4982825;28;19936;-69
2021/12/17 09:39:38;;;;;;;;;;;;;;;;;;4982055;28;20383;-69
2021/12/17 09:42:03;;;;;;;;;;;;;;;;;;4981150;28;19918;-68
2021/12/17 09:44:29;;;;;;;;;;;;;;;;;;4982741;28;19924;-68
2021/12/17 09:46:57;;;;;;;;;;;;;;;;;;4983888;28;19972;-68
2021/12/17 09:49:22;;;;;;;;;;;;;;;;;;4983598;28;20458;-66
2021/12/17 09:51:48;;;;;;;;;;;;;;;;;;4997369;28;19918;-68
2021/12/17 09:54:13;;;;;;;;;;;;;;;;;;5002018;28;19924;-68
2021/12/17 09:56:38;;;;;;;;;;;;;;;;;;4983687;28;19918;-69
2021/12/17 09:59:03;;;;;;;;;;;;;;;;;;4987411;28;20171;-70
2021/12/17 10:01:28;;;;;;;;;;;;;;;;;;4983232;28;19921;-68
2021/12/17 10:03:54;;;;;;;;;;;;;;;;;;4984374;28;19918;-72
2021/12/17 10:06:19;;;;;;;;;;;;;;;;;;4999405;28;19918;-68
2021/12/17 10:08:44;;;;;;;;;;;;;;;;;;5002025;28;19922;-70
2021/12/17 10:11:09;;;;;;;;;;;;;;;;;;5004183;28;19983;-68
2021/12/17 10:13:35;;;;;;;;;;;;;;;;;;4970087;28;20296;-68
2021/12/17 10:16:01;;;;;;;;;;;;;;;;;;4981688;28;19917;-69
2021/12/17 10:18:26;;;;;;;;;;;;;;;;;;4983877;28;19937;-70
2021/12/17 10:20:51;;;;;;;;;;;;;;;;;;4982381;28;20442;-69
2021/12/17 10:23:16;;;;;;;;;;;;;;;;;;4983658;28;19918;-69
2021/12/17 10:25:41;;;;;;;;;;;;;;;;;;4982734;28;19925;-68
2021/12/17 10:28:07;;;;;;;;;;;;;;;;;;4977419;28;19933;-68
2021/12/17 10:30:32;;;;;;;;;;;;;;;;;;4982464;28;19928;-69
2021/12/17 10:32:57;;;;;;;;;;;;;;;;;;4996375;28;19949;-68
2021/12/17 10:35:22;;;;;;;;;;;;;;;;;;4982625;28;19980;-68
2021/12/17 10:37:55;;;;;;;;;;;;;;;;;;4982729;28;20401;-68
2021/12/17 10:40:20;;;;;;;;;;;;;;;;;;4981255;28;20037;-68
2021/12/17 10:42:54;;;;;;;;;;;;;;;;;;4981575;28;20048;-69
2021/12/17 10:45:25;;;;;;;;;;;;;;;;;;4980262;28;20873;-68
2021/12/17 10:47:57;;;;;;;;;;;;;;;;;;4988019;28;20000;-68
2021/12/17 10:50:23;;;;;;;;;;;;;;;;;;4983264;28;19992;-69
2021/12/17 10:52:55;;;;;;;;;;;;;;;;;;4982715;28;20383;-66
2021/12/17 10:55:20;;;;;;;;;;;;;;;;;;4982690;28;19922;-68
2021/12/17 10:57:46;;;;;;;;;;;;;;;;;;4981660;28;19972;-69
2021/12/17 11:00:11;;;;;;;;;;;;;;;;;;4987463;28;19924;-69
2021/12/17 11:02:37;;;;;;;;;;;;;;;;;;4975642;28;19918;-68
2021/12/17 11:05:02;;;;;;;;;;;;;;;;;;4980079;28;20004;-68
2021/12/17 11:07:27;;;;;;;;;;;;;;;;;;4995950;28;20387;-68
2021/12/17 11:10:01;;;;;;;;;;;;;;;;;;4986184;28;20367;-68
2021/12/17 11:12:27;;;;;;;;;;;;;;;;;;4985762;28;20382;-68
2021/12/17 11:14:53;;;;;;;;;;;;;;;;;;4985808;28;20004;-68
2021/12/17 11:17:18;;;;;;;;;;;;;;;;;;4986611;28;20328;-68
2021/12/17 11:19:43;;;;;;;;;;;;;;;;;;4985554;28;20444;-70
2021/12/17 11:22:08;;;;;;;;;;;;;;;;;;4987040;28;19914;-68
2021/12/17 11:24:33;;;;;;;;;;;;;;;;;;4986662;28;19980;-69
2021/12/17 11:26:59;;;;;;;;;;;;;;;;;;4986783;28;19983;-69
2021/12/17 11:29:24;;;;;;;;;;;;;;;;;;4987014;28;19976;-68
2021/12/17 11:31:49;;;;;;;;;;;;;;;;;;4986350;28;19914;-69
2021/12/17 11:34:16;;;;;;;;;;;;;;;;;;4986633;28;19964;-69
2021/12/17 11:36:41;;;;;;;;;;;;;;;;;;4984012;28;20510;-71
2021/12/17 11:39:07;;;;;;;;;;;;;;;;;;4984118;28;20397;-68
2021/12/17 11:41:32;;;;;;;;;;;;;;;;;;4985375;28;20378;-69
2021/12/17 11:43:59;;;;;;;;;;;;;;;;;;4986178;28;19922;-69
2021/12/17 11:46:24;;;;;;;;;;;;;;;;;;4983545;28;20465;-69
2021/12/17 11:48:50;;;;;;;;;;;;;;;;;;4985174;28;20355;-70
2021/12/17 11:51:15;;;;;;;;;;;;;;;;;;4989000;28;20573;-68
2021/12/17 11:53:40;;;;;;;;;;;;;;;;;;5004120;28;19943;-68
2021/12/17 11:56:06;;;;;;;;;;;;;;;;;;4990163;28;19921;-69
2021/12/17 11:58:31;;;;;;;;;;;;;;;;;;4998392;28;19917;-69
2021/12/17 12:00:56;;;;;;;;;;;;;;;;;;4986679;28;19972;-70
2021/12/17 12:03:21;;;;;;;;;;;;;;;;;;4985827;28;19993;-68
2021/12/17 12:05:47;;;;;;;;;;;;;;;;;;5003390;28;19921;-68
2021/12/17 12:08:12;;;;;;;;;;;;;;;;;;4985407;28;19925;-68
2021/12/17 12:10:37;;;;;;;;;;;;;;;;;;4985893;28;19914;-68
2021/12/17 12:13:04;;;;;;;;;;;;;;;;;;4985467;28;19965;-70
2021/12/17 12:15:31;;;;;;;;;;;;;;;;;;4984787;28;19918;-71
2021/12/17 12:18:06;;;;;;;;;;;;;;;;;;5001516;28;19918;-69
2021/12/17 12:20:31;;;;;;;;;;;;;;;;;;4986859;28;19949;-69
2021/12/17 12:22:56;;;;;;;;;;;;;;;;;;4986634;28;19953;-67
2021/12/17 12:25:22;;;;;;;;;;;;;;;;;;4984254;28;20021;-69
2021/12/17 12:27:47;;;;;;;;;;;;;;;;;;4984773;28;19921;-70
2021/12/17 12:30:13;;;;;;;;;;;;;;;;;;4983532;28;19980;-70
2021/12/17 12:32:38;;;;;;;;;;;;;;;;;;4984923;28;19996;-69
2021/12/17 12:35:04;;;;;;;;;;;;;;;;;;4985718;28;20005;-69
2021/12/17 12:37:29;;;;;;;;;;;;;;;;;;4984692;28;19924;-70
2021/12/17 12:39:55;;;;;;;;;;;;;;;;;;4985652;28;19963;-69
2021/12/17 12:42:20;;;;;;;;;;;;;;;;;;4984647;28;19924;-69
2021/12/17 12:44:45;;;;;;;;;;;;;;;;;;4983622;28;19918;-69
2021/12/17 12:47:11;;;;;;;;;;;;;;;;;;4984728;28;20278;-68
2021/12/17 12:49:36;;;;;;;;;;;;;;;;;;4985882;28;19922;-69
2021/12/17 12:52:01;;;;;;;;;;;;;;;;;;4984767;28;19972;-68
2021/12/17 12:54:26;;;;;;;;;;;;;;;;;;4999988;28;19918;-68
2021/12/17 12:56:51;;;;;;;;;;;;;;;;;;4987247;28;20477;-67
2021/12/17 12:59:17;;;;;;;;;;;;;;;;;;4996186;28;19925;-67
2021/12/17 13:01:42;;;;;;;;;;;;;;;;;;4988374;28;19922;-66
2021/12/17 13:04:07;;;;;;;;;;;;;;;;;;4988479;28;20477;-67
2021/12/17 13:06:32;;;;;;;;;;;;;;;;;;4988049;28;20397;-67
2021/12/17 13:08:59;;;;;;;;;;;;;;;;;;4988335;28;19984;-71
2021/12/17 13:11:24;;;;;;;;;;;;;;;;;;4988909;28;19913;-68
2021/12/17 13:13:54;;;;;;;;;;;;;;;;;;4988410;28;20311;-68
2021/12/17 13:16:23;;;;;;;;;;;;;;;;;;5009563;28;19914;-69
2021/12/17 13:21:43;;;;;;;;;;;;;;;;;;4987956;28;20290;-68
2021/12/17 13:24:13;;;;;;;;;;;;;;;;;;4988433;28;20245;-68
2021/12/17 13:26:38;;;;;;;;;;;;;;;;;;4988596;28;19937;-68
2021/12/17 13:29:05;;;;;;;;;;;;;;;;;;4988263;28;19918;-69
2021/12/17 13:31:30;;;;;;;;;;;;;;;;;;4988415;28;19925;-68
2021/12/17 13:33:55;;;;;;;;;;;;;;;;;;5007045;28;19922;-67
2021/12/17 13:36:20;;;;;;;;;;;;;;;;;;4986633;28;19913;-68
2021/12/17 13:38:45;;;;;;;;;;;;;;;;;;4984363;28;20341;-67
2021/12/17 13:41:11;;;;;;;;;;;;;;;;;;5005961;28;19922;-67
2021/12/17 13:43:36;;;;;;;;;;;;;;;;;;4985751;28;20462;-67
2021/12/17 13:46:03;;;;;;;;;;;;;;;;;;4985982;28;20284;-67
2021/12/17 13:48:28;;;;;;;;;;;;;;;;;;4986431;28;19918;-67
2021/12/17 13:50:53;;;;;;;;;;;;;;;;;;4987514;28;19914;-67
2021/12/17 13:53:18;;;;;;;;;;;;;;;;;;4982339;28;20394;-68
2021/12/17 13:55:44;;;;;;;;;;;;;;;;;;4976486;28;20444;-68
2021/12/17 13:58:09;;;;;;;;;;;;;;;;;;4983597;28;20425;-68
2021/12/17 14:00:36;;;;;;;;;;;;;;;;;;4976276;28;19991;-67
2021/12/17 14:03:02;;;;;;;;;;;;;;;;;;4978617;28;20359;-69
2021/12/17 14:05:29;;;;;;;;;;;;;;;;;;4984781;28;19922;-68
2021/12/17 14:07:54;;;;;;;;;;;;;;;;;;4976928;28;19929;-68
2021/12/17 14:10:19;;;;;;;;;;;;;;;;;;4986238;28;19918;-67
2021/12/17 14:12:44;;;;;;;;;;;;;;;;;;4978025;28;19921;-68
2021/12/17 14:15:10;;;;;;;;;;;;;;;;;;4975396;28;19918;-68
2021/12/17 14:17:35;;;;;;;;;;;;;;;;;;4979421;28;20128;-68
2021/12/17 14:20:00;;;;;;;;;;;;;;;;;;4976118;28;20003;-68
2021/12/17 14:22:27;;;;;;;;;;;;;;;;;;4983339;28;19925;-68
2021/12/17 14:24:52;;;;;;;;;;;;;;;;;;4975050;28;19948;-68
2021/12/17 14:27:17;;;;;;;;;;;;;;;;;;4976180;28;20283;-68
2021/12/17 14:29:43;;;;;;;;;;;;;;;;;;4982239;28;19922;-67
2021/12/17 14:32:08;;;;;;;;;;;;;;;;;;4973431;28;19917;-67
2021/12/17 14:34:33;;;;;;;;;;;;;;;;;;4981491;28;20266;-67
2021/12/17 14:36:58;;;;;;;;;;;;;;;;;;4975117;28;19922;-66
2021/12/17 14:39:33;;;;;;;;;;;;;;;;;;4987066;28;20426;-67
2021/12/17 14:42:02;;;;;;;;;;;;;;;;;;4977933;28;20277;-68
2021/12/17 14:46:58;;;;;;;;;;;;;;;;;;4983786;28;19956;-67
2021/12/17 15:05:10;;;;;;;;;;;;;;;;;;4975883;28;20004;-68
2021/12/17 15:07:35;;;;;;;;;;;;;;;;;;4975853;28;19952;-69
2021/12/17 15:10:03;;;;;;;;;;;;;;;;;;4981393;28;19964;-68
2021/12/17 15:14:59;;;;;;;;;;;;;;;;;;4981282;28;20327;-68
2021/12/17 15:17:24;;;;;;;;;;;;;;;;;;4989628;28;19976;-68
2021/12/17 15:19:50;;;;;;;;;;;;;;;;;;4960017;28;19921;-68
2021/12/17 15:22:15;;;;;;;;;;;;;;;;;;4987055;28;19921;-68
2021/12/17 15:24:40;;;;;;;;;;;;;;;;;;4977009;28;19921;-68
2021/12/17 15:27:05;;;;;;;;;;;;;;;;;;4980116;28;19940;-68
2021/12/17 15:29:30;;;;;;;;;;;;;;;;;;4976714;28;19976;-68
2021/12/17 15:31:56;;;;;;;;;;;;;;;;;;4977106;28;19922;-67
2021/12/17 15:34:21;;;;;;;;;;;;;;;;;;4980491;28;19925;-71
2021/12/17 15:36:46;;;;;;;;;;;;;;;;;;4973682;28;19913;-67
2021/12/17 15:39:11;;;;;;;;;;;;;;;;;;4980479;28;19925;-67
2021/12/17 15:41:40;;;;;;;;;;;;;;;;;;4975019;28;19918;-68
2021/12/17 15:44:06;;;;;;;;;;;;;;;;;;4991671;28;19964;-67
2021/12/17 15:46:31;;;;;;;;;;;;;;;;;;4970268;28;19926;-67
2021/12/17 15:48:56;;;;;;;;;;;;;;;;;;4974071;28;19922;-67
2021/12/17 15:51:21;;;;;;;;;;;;;;;;;;4980271;28;19940;-67
2021/12/17 15:53:47;;;;;;;;;;;;;;;;;;4974039;28;20341;-68
2021/12/17 15:56:12;;;;;;;;;;;;;;;;;;4975864;28;20474;-68
2021/12/17 15:58:37;;;;;;;;;;;;;;;;;;4986000;28;20381;-68
2021/12/17 16:01:02;;;;;;;;;;;;;;;;;;4993506;28;20243;-68
2021/12/17 16:03:32;;;;;;;;;;;;;;;;;;4984944;28;19924;-68
2021/12/17 16:05:58;;;;;;;;;;;;;;;;;;4981329;28;19969;-68
2021/12/17 16:08:23;;;;;;;;;;;;;;;;;;4979017;28;19925;-68
2021/12/17 16:20:59;;;;;;;;;;;;;;;;;;4982823;28;19917;-68
2021/12/17 16:21:38;;;;;;;;;;;;;;;;;;4977518;28;19994;-68
2021/12/17 16:24:03;;;;;;;;;;;;;;;;;;4983325;28;20530;-68
2021/12/17 16:26:28;;;;;;;;;;;;;;;;;;4977319;28;20371;-68
2021/12/17 16:28:54;;;;;;;;;;;;;;;;;;4979917;28;19926;-68
2021/12/17 16:31:19;;;;;;;;;;;;;;;;;;4967263;28;19929;-68
2021/12/17 16:33:44;;;;;;;;;;;;;;;;;;4981974;28;19924;-68
2021/12/17 16:36:09;;;;;;;;;;;;;;;;;;4983404;28;20411;-67
2021/12/17 16:38:34;;;;;;;;;;;;;;;;;;4980634;28;19925;-68
2021/12/17 16:41:00;;;;;;;;;;;;;;;;;;4979737;28;20060;-68
2021/12/17 16:43:25;;;;;;;;;;;;;;;;;;4983818;28;20372;-69
2021/12/17 16:48:48;;;;;;;;;;;;;;;;;;4981455;28;20290;-69
2021/12/17 16:51:13;;;;;;;;;;;;;;;;;;4985336;28;19918;-68
2021/12/17 16:53:39;;;;;;;;;;;;;;;;;;4986472;28;19924;-69
2021/12/17 16:56:04;;;;;;;;;;;;;;;;;;4985109;28;19925;-68
2021/12/17 16:58:29;;;;;;;;;;;;;;;;;;4996743;28;20064;-68
2021/12/17 17:00:55;;;;;;;;;;;;;;;;;;4983728;28;20131;-68
2021/12/17 17:03:20;;;;;;;;;;;;;;;;;;4979842;28;20329;-68
2021/12/17 17:05:45;;;;;;;;;;;;;;;;;;4983173;28;20296;-69
2021/12/17 17:08:10;;;;;;;;;;;;;;;;;;4984372;28;19917;-68
2021/12/17 17:10:36;;;;;;;;;;;;;;;;;;4984939;28;19924;-68
2021/12/17 17:13:04;;;;;;;;;;;;;;;;;;4985001;28;20378;-68
2021/12/17 17:15:33;;;;;;;;;;;;;;;;;;4986333;28;20016;-69
2021/12/17 17:17:59;;;;;;;;;;;;;;;;;;4986680;28;19918;-68
2021/12/17 17:20:24;;;;;;;;;;;;;;;;;;4986625;28;20330;-68
2021/12/17 17:22:49;;;;;;;;;;;;;;;;;;4985411;28;19924;-69
2021/12/17 17:25:14;;;;;;;;;;;;;;;;;;4981738;28;19972;-69
2021/12/17 17:27:40;;;;;;;;;;;;;;;;;;4983712;28;19964;-68
2021/12/17 17:30:05;;;;;;;;;;;;;;;;;;4985217;28;19984;-69
2021/12/17 17:32:33;;;;;;;;;;;;;;;;;;4985435;28;20004;-68
2021/12/17 17:34:59;;;;;;;;;;;;;;;;;;4999678;28;19980;-68
2021/12/17 17:37:28;;;;;;;;;;;;;;;;;;4984531;28;19976;-68
2021/12/17 17:39:53;;;;;;;;;;;;;;;;;;4985249;28;19953;-68
2021/12/17 17:42:18;;;;;;;;;;;;;;;;;;4985190;28;19972;-68
2021/12/17 17:44:44;;;;;;;;;;;;;;;;;;4985936;28;19974;-69
2021/12/17 17:47:09;;;;;;;;;;;;;;;;;;4984758;28;19925;-69
2021/12/17 17:49:34;;;;;;;;;;;;;;;;;;4983480;28;20405;-68
2021/12/17 17:51:59;;;;;;;;;;;;;;;;;;4985864;28;19961;-68
2021/12/17 17:54:25;;;;;;;;;;;;;;;;;;4986074;28;19924;-68
2021/12/17 17:56:50;;;;;;;;;;;;;;;;;;4985556;28;19918;-68
2021/12/17 17:59:15;;;;;;;;;;;;;;;;;;4984775;28;19953;-69
2021/12/17 18:01:40;;;;;;;;;;;;;;;;;;4984492;28;19972;-69
2021/12/17 18:04:05;;;;;;;;;;;;;;;;;;4981592;28;20480;-69
2021/12/17 18:06:31;;;;;;;;;;;;;;;;;;4985298;28;19969;-69
2021/12/17 18:08:56;;;;;;;;;;;;;;;;;;4990410;28;20012;-69
2021/12/17 18:11:21;;;;;;;;;;;;;;;;;;4985729;28;19917;-69
2021/12/17 18:13:46;;;;;;;;;;;;;;;;;;4984593;28;20452;-69
2021/12/17 18:16:11;;;;;;;;;;;;;;;;;;4985522;28;19922;-69
2021/12/17 18:18:37;;;;;;;;;;;;;;;;;;4983307;28;19930;-69
2021/12/17 18:21:02;;;;;;;;;;;;;;;;;;4985716;28;20318;-68
2021/12/17 18:23:27;;;;;;;;;;;;;;;;;;4984645;28;20445;-68
2021/12/17 18:25:52;;;;;;;;;;;;;;;;;;4984411;28;19928;-69
2021/12/17 18:28:18;;;;;;;;;;;;;;;;;;4982657;28;19918;-69
2021/12/17 18:30:43;;;;;;;;;;;;;;;;;;4984726;28;20330;-68
2021/12/17 18:33:08;;;;;;;;;;;;;;;;;;4983834;28;20011;-68
2021/12/17 18:35:33;;;;;;;;;;;;;;;;;;4984071;28;19922;-68
2021/12/17 18:37:59;;;;;;;;;;;;;;;;;;4984563;28;19925;-69
2021/12/17 18:40:26;;;;;;;;;;;;;;;;;;4984958;28;19914;-69
2021/12/17 18:45:39;;;;;;;;;;;;;;;;;;4984503;28;19918;-69
2021/12/17 18:48:04;;;;;;;;;;;;;;;;;;4985041;28;20363;-69
2021/12/17 18:50:29;;;;;;;;;;;;;;;;;;4984770;28;19918;-68
2021/12/17 18:52:56;;;;;;;;;;;;;;;;;;4985047;28;20351;-68
2021/12/17 18:55:21;;;;;;;;;;;;;;;;;;4984315;28;19925;-69
2021/12/17 18:57:46;;;;;;;;;;;;;;;;;;4999908;28;20322;-68
2021/12/17 19:00:12;;;;;;;;;;;;;;;;;;4984672;28;19925;-68
2021/12/17 19:02:37;;;;;;;;;;;;;;;;;;4984393;28;20001;-69
2021/12/17 19:05:03;;;;;;;;;;;;;;;;;;4982817;28;19960;-68
2021/12/17 19:07:28;;;;;;;;;;;;;;;;;;4983085;28;19922;-68
2021/12/17 19:09:53;;;;;;;;;;;;;;;;;;4983936;28;20457;-67
2021/12/17 19:12:18;;;;;;;;;;;;;;;;;;4984171;28;20462;-68
2021/12/17 19:14:43;;;;;;;;;;;;;;;;;;4984718;28;19947;-69
2021/12/17 19:17:09;;;;;;;;;;;;;;;;;;4990465;28;20387;-68
2021/12/17 19:19:48;;;;;;;;;;;;;;;;;;4981485;28;20298;-68
2021/12/17 19:22:24;;;;;;;;;;;;;;;;;;4983420;28;19928;-69
2021/12/17 19:24:49;;;;;;;;;;;;;;;;;;4983781;28;20004;-67
2021/12/17 19:27:14;;;;;;;;;;;;;;;;;;4984487;28;20410;-67
2021/12/17 19:29:39;;;;;;;;;;;;;;;;;;4983929;28;20366;-67
2021/12/17 19:32:05;;;;;;;;;;;;;;;;;;4986571;28;19920;-69
2021/12/17 19:34:30;;;;;;;;;;;;;;;;;;5002463;28;20299;-69
2021/12/17 19:36:55;;;;;;;;;;;;;;;;;;4988675;28;20468;-68
2021/12/17 19:39:20;;;;;;;;;;;;;;;;;;4987735;28;20387;-68
2021/12/17 19:41:46;;;;;;;;;;;;;;;;;;4988025;28;19918;-68
2021/12/17 19:44:11;;;;;;;;;;;;;;;;;;4989078;28;20413;-67
2021/12/17 19:46:43;;;;;;;;;;;;;;;;;;4988923;28;20139;-67
2021/12/17 19:51:36;;;;;;;;;;;;;;;;;;4989947;28;19922;-66
2021/12/17 19:54:01;;;;;;;;;;;;;;;;;;4993100;28;19914;-66
2021/12/17 19:56:27;;;;;;;;;;;;;;;;;;4984868;28;19972;-67
2021/12/17 19:58:52;;;;;;;;;;;;;;;;;;4989103;28;19933;-67
2021/12/17 20:01:17;;;;;;;;;;;;;;;;;;4988833;28;19996;-67
2021/12/17 20:03:50;;;;;;;;;;;;;;;;;;4988644;28;19949;-67
2021/12/17 20:06:15;;;;;;;;;;;;;;;;;;4988591;28;19922;-68
2021/12/17 20:08:40;;;;;;;;;;;;;;;;;;4988385;28;19921;-67
2021/12/17 20:11:06;;;;;;;;;;;;;;;;;;4988877;28;19918;-67
2021/12/17 20:13:31;;;;;;;;;;;;;;;;;;4987792;28;19925;-67
2021/12/17 20:16:00;;;;;;;;;;;;;;;;;;4987952;28;19929;-67